createdAt,value
2019-01-25T00:00:04.283Z,-4.10
2019-01-25T00:01:04.863Z,-4.10
2019-01-25T00:02:05.267Z,-4.10
2019-01-25T00:03:09.782Z,-4.10
2019-01-25T00:04:04.639Z,-4.10
2019-01-25T00:05:04.997Z,-4.10
2019-01-25T00:06:04.832Z,-4.10
2019-01-25T00:07:04.851Z,-4.10
2019-01-25T00:08:04.954Z,-4.10
2019-01-25T00:09:05.115Z,-4.10
2019-01-25T00:10:04.717Z,-4.10
2019-01-25T00:11:04.466Z,-4.20
2019-01-25T00:12:05.113Z,-4.10
2019-01-25T00:13:04.712Z,-4.20
2019-01-25T00:14:04.790Z,-4.20
2019-01-25T00:15:05.107Z,-4.20
2019-01-25T00:16:05.126Z,-4.20
2019-01-25T00:17:04.271Z,-4.20
2019-01-25T00:18:04.531Z,-4.20
2019-01-25T00:19:04.882Z,-4.20
2019-01-25T00:20:04.609Z,-4.20
2019-01-25T00:21:05.079Z,-4.20
2019-01-25T00:22:04.356Z,-4.20
2019-01-25T00:23:04.374Z,-4.20
2019-01-25T00:24:04.415Z,-4.20
2019-01-25T00:25:05.095Z,-4.20
2019-01-25T00:26:04.357Z,-4.20
2019-01-25T00:27:04.434Z,-4.20
2019-01-25T00:28:05.259Z,-4.20
2019-01-25T00:29:11.018Z,-4.20
2019-01-25T00:30:04.507Z,-4.20
2019-01-25T00:31:04.549Z,-4.20
2019-01-25T00:32:05.054Z,-4.20
2019-01-25T00:33:05.094Z,-4.20
2019-01-25T00:34:04.740Z,-4.20
2019-01-25T00:35:04.461Z,-4.20
2019-01-25T00:36:04.514Z,-4.20
2019-01-25T00:37:04.865Z,-4.20
2019-01-25T00:38:04.503Z,-4.20
2019-01-25T00:39:04.828Z,-4.20
2019-01-25T00:40:06.225Z,-4.20
2019-01-25T00:41:05.130Z,-4.20
2019-01-25T00:42:04.440Z,-4.20
2019-01-25T00:43:04.600Z,-4.20
2019-01-25T00:44:04.672Z,-4.20
2019-01-25T00:45:04.779Z,-4.30
2019-01-25T00:46:05.104Z,-4.30
2019-01-25T00:47:04.688Z,-4.30
2019-01-25T00:48:04.470Z,-4.30
2019-01-25T00:49:11.027Z,-4.30
2019-01-25T00:50:04.577Z,-4.30
2019-01-25T00:51:04.680Z,-4.30
2019-01-25T00:52:04.767Z,-4.30
2019-01-25T00:53:05.054Z,-4.30
2019-01-25T00:54:04.597Z,-4.30
2019-01-25T00:55:04.635Z,-4.30
2019-01-25T00:56:04.747Z,-4.30
2019-01-25T00:57:05.042Z,-4.30
2019-01-25T00:58:04.697Z,-4.30
2019-01-25T00:59:04.763Z,-4.30
2019-01-25T01:00:04.804Z,-4.30
2019-01-25T01:01:05.262Z,-4.30
2019-01-25T01:02:04.374Z,-4.30
2019-01-25T01:03:04.859Z,-4.30
2019-01-25T01:04:04.390Z,-4.30
2019-01-25T01:05:04.336Z,-4.30
2019-01-25T01:06:05.002Z,-4.30
2019-01-25T01:07:04.259Z,-4.30
2019-01-25T01:08:04.883Z,-4.30
2019-01-25T01:09:04.834Z,-4.30
2019-01-25T01:10:05.019Z,-4.30
2019-01-25T01:11:04.835Z,-4.40
2019-01-25T01:12:04.924Z,-4.30
2019-01-25T01:13:04.917Z,-4.30
2019-01-25T01:14:05.029Z,-4.40
2019-01-25T01:15:05.104Z,-4.40
2019-01-25T01:16:04.658Z,-4.40
2019-01-25T01:17:04.848Z,-4.30
2019-01-25T01:18:04.542Z,-4.40
2019-01-25T01:19:04.992Z,-4.40
2019-01-25T01:20:04.993Z,-4.40
2019-01-25T01:21:04.606Z,-4.40
2019-01-25T01:22:05.024Z,-4.40
2019-01-25T01:23:04.393Z,-4.30
2019-01-25T01:24:04.841Z,-4.40
2019-01-25T01:25:05.074Z,-4.40
2019-01-25T01:26:04.352Z,-4.40
2019-01-25T01:27:04.649Z,-4.40
2019-01-25T01:28:04.839Z,-4.40
2019-01-25T01:29:04.447Z,-4.40
2019-01-25T01:30:05.013Z,-4.40
2019-01-25T01:31:04.390Z,-4.30
2019-01-25T01:32:04.757Z,-4.40
2019-01-25T01:33:04.904Z,-4.40
2019-01-25T01:34:04.942Z,-4.40
2019-01-25T01:35:11.052Z,-4.30
2019-01-25T01:36:04.677Z,-4.40
2019-01-25T01:37:04.690Z,-4.40
2019-01-25T01:38:05.084Z,-4.40
2019-01-25T01:39:05.220Z,-4.40
2019-01-25T01:40:05.243Z,-4.30
2019-01-25T01:41:04.178Z,-4.30
2019-01-25T01:42:04.841Z,-4.30
2019-01-25T01:43:04.293Z,-4.30
2019-01-25T01:44:04.965Z,-4.30
2019-01-25T01:45:04.681Z,-4.30
2019-01-25T01:46:04.858Z,-4.30
2019-01-25T01:47:04.236Z,-4.30
2019-01-25T01:48:04.391Z,-4.30
2019-01-25T01:49:04.951Z,-4.30
2019-01-25T01:50:04.262Z,-4.30
2019-01-25T01:51:04.897Z,-4.30
2019-01-25T01:52:04.547Z,-4.30
2019-01-25T01:53:04.215Z,-4.30
2019-01-25T01:54:04.910Z,-4.30
2019-01-25T01:55:05.180Z,-4.30
2019-01-25T01:56:05.163Z,-4.30
2019-01-25T01:57:05.136Z,-4.30
2019-01-25T01:58:04.973Z,-4.30
2019-01-25T01:59:04.475Z,-4.30
2019-01-25T02:00:04.532Z,-4.30
2019-01-25T02:01:04.558Z,-4.30
2019-01-25T02:02:05.100Z,-4.30
2019-01-25T02:03:04.274Z,-4.30
2019-01-25T02:04:04.307Z,-4.30
2019-01-25T02:05:04.936Z,-4.30
2019-01-25T02:06:04.597Z,-4.30
2019-01-25T02:07:04.749Z,-4.30
2019-01-25T02:08:04.638Z,-4.30
2019-01-25T02:09:05.074Z,-4.30
2019-01-25T02:10:05.159Z,-4.30
2019-01-25T02:11:05.195Z,-4.30
2019-01-25T02:12:04.563Z,-4.30
2019-01-25T02:13:05.114Z,-4.30
2019-01-25T02:14:05.141Z,-4.30
2019-01-25T02:15:04.405Z,-4.30
2019-01-25T02:16:04.716Z,-4.30
2019-01-25T02:17:05.008Z,-4.30
2019-01-25T02:18:04.385Z,-4.30
2019-01-25T02:19:04.985Z,-4.30
2019-01-25T02:20:05.007Z,-4.30
2019-01-25T02:21:05.081Z,-4.30
2019-01-25T02:22:05.154Z,-4.30
2019-01-25T02:23:04.864Z,-4.30
2019-01-25T02:24:04.264Z,-4.30
2019-01-25T02:25:05.151Z,-4.30
2019-01-25T02:26:05.195Z,-4.30
2019-01-25T02:27:04.218Z,-4.30
2019-01-25T02:28:04.347Z,-4.30
2019-01-25T02:29:11.106Z,-4.30
2019-01-25T02:30:04.687Z,-4.40
2019-01-25T02:31:04.838Z,-4.40
2019-01-25T02:32:04.243Z,-4.40
2019-01-25T02:33:04.347Z,-4.40
2019-01-25T02:34:04.395Z,-4.30
2019-01-25T02:35:05.080Z,-4.40
2019-01-25T02:36:05.047Z,-4.30
2019-01-25T02:37:04.611Z,-4.40
2019-01-25T02:38:04.303Z,-4.40
2019-01-25T02:39:04.318Z,-4.40
2019-01-25T02:40:04.595Z,-4.40
2019-01-25T02:41:05.032Z,-4.40
2019-01-25T02:42:04.974Z,-4.40
2019-01-25T02:43:04.435Z,-4.40
2019-01-25T02:44:04.860Z,-4.40
2019-01-25T02:45:04.676Z,-4.40
2019-01-25T02:46:04.830Z,-4.40
2019-01-25T02:47:04.343Z,-4.40
2019-01-25T02:48:04.438Z,-4.40
2019-01-25T02:49:04.772Z,-4.40
2019-01-25T02:50:04.335Z,-4.40
2019-01-25T02:51:04.853Z,-4.40
2019-01-25T02:52:05.157Z,-4.40
2019-01-25T02:53:04.390Z,-4.40
2019-01-25T02:54:04.435Z,-4.40
2019-01-25T02:55:05.003Z,-4.40
2019-01-25T02:56:05.525Z,-4.40
2019-01-25T02:57:05.202Z,-4.40
2019-01-25T02:58:04.328Z,-4.40
2019-01-25T02:59:04.779Z,-4.40
2019-01-25T03:00:04.493Z,-4.40
2019-01-25T03:01:05.080Z,-4.40
2019-01-25T03:02:04.469Z,-4.40
2019-01-25T03:03:04.621Z,-4.40
2019-01-25T03:04:04.899Z,-4.40
2019-01-25T03:05:04.898Z,-4.40
2019-01-25T03:06:04.461Z,-4.40
2019-01-25T03:07:04.852Z,-4.40
2019-01-25T03:08:04.321Z,-4.40
2019-01-25T03:09:04.530Z,-4.40
2019-01-25T03:10:04.358Z,-4.40
2019-01-25T03:11:04.726Z,-4.40
2019-01-25T03:12:05.063Z,-4.40
2019-01-25T03:13:05.102Z,-4.40
2019-01-25T03:14:04.649Z,-4.40
2019-01-25T03:15:04.872Z,-4.40
2019-01-25T03:16:05.124Z,-4.40
2019-01-25T03:17:04.758Z,-4.40
2019-01-25T03:18:04.895Z,-4.40
2019-01-25T03:19:04.649Z,-4.40
2019-01-25T03:20:04.624Z,-4.40
2019-01-25T03:21:05.067Z,-4.40
2019-01-25T03:22:04.868Z,-4.40
2019-01-25T03:23:04.504Z,-4.50
2019-01-25T03:24:05.037Z,-4.50
2019-01-25T03:25:04.623Z,-4.50
2019-01-25T03:26:04.305Z,-4.50
2019-01-25T03:27:04.431Z,-4.50
2019-01-25T03:28:04.499Z,-4.50
2019-01-25T03:29:11.154Z,-4.50
2019-01-25T03:30:04.780Z,-4.50
2019-01-25T03:31:04.763Z,-4.50
2019-01-25T03:32:04.292Z,-4.50
2019-01-25T03:33:04.589Z,-4.50
2019-01-25T03:34:04.678Z,-4.50
2019-01-25T03:35:04.855Z,-4.50
2019-01-25T03:36:04.308Z,-4.50
2019-01-25T03:37:05.084Z,-4.50
2019-01-25T03:38:05.046Z,-4.50
2019-01-25T03:39:05.236Z,-4.50
2019-01-25T03:40:04.290Z,-4.50
2019-01-25T03:41:04.650Z,-4.50
2019-01-25T03:42:04.805Z,-4.50
2019-01-25T03:43:04.994Z,-4.50
2019-01-25T03:44:05.089Z,-4.60
2019-01-25T03:45:04.563Z,-4.50
2019-01-25T03:46:04.638Z,-4.50
2019-01-25T03:47:04.941Z,-4.50
2019-01-25T03:48:04.380Z,-4.50
2019-01-25T03:49:12.312Z,-4.50
2019-01-25T03:50:04.827Z,-4.50
2019-01-25T03:51:05.053Z,-4.50
2019-01-25T03:52:05.014Z,-4.50
2019-01-25T03:53:05.115Z,-4.50
2019-01-25T03:54:04.868Z,-4.50
2019-01-25T03:55:05.226Z,-4.50
2019-01-25T03:56:05.269Z,-4.50
2019-01-25T03:57:04.425Z,-4.50
2019-01-25T03:58:04.908Z,-4.60
2019-01-25T03:59:04.491Z,-4.50
2019-01-25T04:00:04.510Z,-4.50
2019-01-25T04:01:04.670Z,-4.50
2019-01-25T04:02:04.840Z,-4.50
2019-01-25T04:03:05.147Z,-4.50
2019-01-25T04:04:04.870Z,-4.50
2019-01-25T04:05:05.043Z,-4.50
2019-01-25T04:06:04.524Z,-4.50
2019-01-25T04:07:05.036Z,-4.50
2019-01-25T04:08:05.122Z,-4.50
2019-01-25T04:09:05.217Z,-4.50
2019-01-25T04:10:04.757Z,-4.50
2019-01-25T04:11:04.901Z,-4.50
2019-01-25T04:12:04.864Z,-4.50
2019-01-25T04:13:05.015Z,-4.50
2019-01-25T04:14:04.942Z,-4.50
2019-01-25T04:15:05.050Z,-4.50
2019-01-25T04:16:04.685Z,-4.50
2019-01-25T04:17:05.066Z,-4.50
2019-01-25T04:18:05.228Z,-4.60
2019-01-25T04:19:04.359Z,-4.50
2019-01-25T04:20:04.764Z,-4.50
2019-01-25T04:21:04.882Z,-4.50
2019-01-25T04:22:05.160Z,-4.60
2019-01-25T04:23:04.515Z,-4.50
2019-01-25T04:24:05.219Z,-4.50
2019-01-25T04:25:04.871Z,-4.50
2019-01-25T04:26:04.384Z,-4.50
2019-01-25T04:27:04.801Z,-4.50
2019-01-25T04:28:04.864Z,-4.50
2019-01-25T04:29:11.201Z,-4.50
2019-01-25T04:30:04.727Z,-4.50
2019-01-25T04:31:05.000Z,-4.50
2019-01-25T04:32:05.175Z,-4.50
2019-01-25T04:33:04.440Z,-4.50
2019-01-25T04:34:04.935Z,-4.50
2019-01-25T04:35:05.163Z,-4.50
2019-01-25T04:36:04.661Z,-4.50
2019-01-25T04:37:04.686Z,-4.50
2019-01-25T04:38:04.266Z,-4.50
2019-01-25T04:39:04.368Z,-4.50
2019-01-25T04:40:04.449Z,-4.50
2019-01-25T04:41:11.403Z,-4.50
2019-01-25T04:42:04.524Z,-4.50
2019-01-25T04:43:04.545Z,-4.50
2019-01-25T04:44:05.158Z,-4.50
2019-01-25T04:45:04.231Z,-4.50
2019-01-25T04:46:04.781Z,-4.50
2019-01-25T04:47:05.138Z,-4.50
2019-01-25T04:48:05.366Z,-4.50
2019-01-25T04:49:04.415Z,-4.50
2019-01-25T04:50:04.852Z,-4.50
2019-01-25T04:51:04.889Z,-4.50
2019-01-25T04:52:05.018Z,-4.40
2019-01-25T04:53:04.595Z,-4.40
2019-01-25T04:54:05.250Z,-4.40
2019-01-25T04:55:04.272Z,-4.40
2019-01-25T04:56:04.405Z,-4.40
2019-01-25T04:57:04.888Z,-4.40
2019-01-25T04:58:05.036Z,-4.40
2019-01-25T04:59:04.363Z,-4.40
2019-01-25T05:00:04.340Z,-4.40
2019-01-25T05:01:05.057Z,-4.40
2019-01-25T05:02:04.987Z,-4.40
2019-01-25T05:03:04.522Z,-4.40
2019-01-25T05:04:05.055Z,-4.40
2019-01-25T05:05:04.907Z,-4.40
2019-01-25T05:06:04.605Z,-4.40
2019-01-25T05:07:05.218Z,-4.40
2019-01-25T05:08:04.639Z,-4.40
2019-01-25T05:09:04.835Z,-4.40
2019-01-25T05:10:04.805Z,-4.40
2019-01-25T05:11:04.375Z,-4.40
2019-01-25T05:12:04.455Z,-4.40
2019-01-25T05:13:04.927Z,-4.40
2019-01-25T05:14:05.083Z,-4.40
2019-01-25T05:15:04.429Z,-4.40
2019-01-25T05:16:05.024Z,-4.40
2019-01-25T05:17:04.349Z,-4.40
2019-01-25T05:18:04.484Z,-4.40
2019-01-25T05:19:04.541Z,-4.40
2019-01-25T05:20:04.647Z,-4.40
2019-01-25T05:21:04.652Z,-4.40
2019-01-25T05:22:04.728Z,-4.40
2019-01-25T05:23:04.952Z,-4.40
2019-01-25T05:24:04.578Z,-4.40
2019-01-25T05:25:05.615Z,-4.40
2019-01-25T05:26:05.124Z,-4.40
2019-01-25T05:27:04.658Z,-4.40
2019-01-25T05:28:04.753Z,-4.40
2019-01-25T05:29:04.303Z,-4.40
2019-01-25T05:30:04.539Z,-4.40
2019-01-25T05:31:04.591Z,-4.40
2019-01-25T05:32:04.804Z,-4.40
2019-01-25T05:33:05.090Z,-4.40
2019-01-25T05:34:11.225Z,-4.40
2019-01-25T05:35:04.736Z,-4.40
2019-01-25T05:36:04.236Z,-4.40
2019-01-25T05:37:04.714Z,-4.30
2019-01-25T05:38:05.217Z,-4.40
2019-01-25T05:39:04.250Z,-4.40
2019-01-25T05:40:04.469Z,-4.40
2019-01-25T05:41:04.684Z,-4.40
2019-01-25T05:42:04.809Z,-4.30
2019-01-25T05:43:04.928Z,-4.30
2019-01-25T05:44:04.351Z,-4.40
2019-01-25T05:45:04.838Z,-4.40
2019-01-25T05:46:05.031Z,-4.30
2019-01-25T05:47:04.639Z,-4.30
2019-01-25T05:48:04.391Z,-4.30
2019-01-25T05:49:04.697Z,-4.30
2019-01-25T05:50:04.262Z,-4.30
2019-01-25T05:51:04.739Z,-4.30
2019-01-25T05:52:04.840Z,-4.30
2019-01-25T05:53:04.980Z,-4.30
2019-01-25T05:54:04.508Z,-4.30
2019-01-25T05:55:04.384Z,-4.30
2019-01-25T05:56:04.223Z,-4.30
2019-01-25T05:57:04.355Z,-4.30
2019-01-25T05:58:04.409Z,-4.30
2019-01-25T05:59:04.747Z,-4.30
2019-01-25T06:00:05.065Z,-4.30
2019-01-25T06:01:05.214Z,-4.30
2019-01-25T06:02:04.588Z,-4.30
2019-01-25T06:03:05.103Z,-4.30
2019-01-25T06:04:04.330Z,-4.30
2019-01-25T06:05:04.533Z,-4.30
2019-01-25T06:06:05.311Z,-4.30
2019-01-25T06:07:04.837Z,-4.30
2019-01-25T06:08:04.778Z,-4.30
2019-01-25T06:09:04.825Z,-4.30
2019-01-25T06:10:04.910Z,-4.30
2019-01-25T06:11:05.005Z,-4.30
2019-01-25T06:12:04.460Z,-4.30
2019-01-25T06:13:04.827Z,-4.30
2019-01-25T06:14:05.020Z,-4.30
2019-01-25T06:15:05.177Z,-4.30
2019-01-25T06:16:04.497Z,-4.30
2019-01-25T06:17:04.845Z,-4.30
2019-01-25T06:18:04.915Z,-4.30
2019-01-25T06:19:04.393Z,-4.30
2019-01-25T06:20:04.674Z,-4.30
2019-01-25T06:21:05.030Z,-4.30
2019-01-25T06:22:04.502Z,-4.30
2019-01-25T06:23:04.571Z,-4.30
2019-01-25T06:24:04.973Z,-4.30
2019-01-25T06:25:04.471Z,-4.30
2019-01-25T06:26:04.315Z,-4.30
2019-01-25T06:27:04.559Z,-4.30
2019-01-25T06:28:04.687Z,-4.30
2019-01-25T06:29:11.318Z,-4.30
2019-01-25T06:30:04.847Z,-4.30
2019-01-25T06:31:05.054Z,-4.30
2019-01-25T06:32:04.638Z,-4.30
2019-01-25T06:33:05.025Z,-4.30
2019-01-25T06:34:04.326Z,-4.30
2019-01-25T06:35:04.695Z,-4.30
2019-01-25T06:36:04.363Z,-4.30
2019-01-25T06:37:04.822Z,-4.20
2019-01-25T06:38:04.608Z,-4.30
2019-01-25T06:39:04.507Z,-4.20
2019-01-25T06:40:04.539Z,-4.30
2019-01-25T06:41:04.531Z,-4.20
2019-01-25T06:42:04.741Z,-4.20
2019-01-25T06:43:05.212Z,-4.20
2019-01-25T06:44:04.345Z,-4.20
2019-01-25T06:45:04.835Z,-4.30
2019-01-25T06:46:04.922Z,-4.20
2019-01-25T06:47:04.268Z,-4.20
2019-01-25T06:48:04.543Z,-4.20
2019-01-25T06:49:04.493Z,-4.30
2019-01-25T06:50:04.676Z,-4.20
2019-01-25T06:51:05.167Z,-4.20
2019-01-25T06:52:04.277Z,-4.30
2019-01-25T06:53:04.446Z,-4.20
2019-01-25T06:54:04.690Z,-4.20
2019-01-25T06:55:05.047Z,-4.20
2019-01-25T06:56:04.942Z,-4.20
2019-01-25T06:57:05.129Z,-4.20
2019-01-25T06:58:05.401Z,-4.20
2019-01-25T06:59:04.581Z,-4.20
2019-01-25T07:00:05.163Z,-4.20
2019-01-25T07:01:04.229Z,-4.20
2019-01-25T07:02:05.049Z,-4.20
2019-01-25T07:03:05.001Z,-4.20
2019-01-25T07:04:05.272Z,-4.20
2019-01-25T07:05:04.998Z,-4.20
2019-01-25T07:06:05.202Z,-4.20
2019-01-25T07:07:05.262Z,-4.20
2019-01-25T07:08:05.033Z,-4.20
2019-01-25T07:09:04.411Z,-4.20
2019-01-25T07:10:05.057Z,-4.20
2019-01-25T07:11:04.375Z,-4.20
2019-01-25T07:12:04.787Z,-4.20
2019-01-25T07:13:05.304Z,-4.20
2019-01-25T07:14:04.365Z,-4.20
2019-01-25T07:15:04.448Z,-4.20
2019-01-25T07:16:04.856Z,-4.20
2019-01-25T07:17:04.921Z,-4.20
2019-01-25T07:18:05.109Z,-4.20
2019-01-25T07:19:04.284Z,-4.20
2019-01-25T07:20:04.572Z,-4.20
2019-01-25T07:21:04.639Z,-4.20
2019-01-25T07:22:04.715Z,-4.20
2019-01-25T07:23:04.848Z,-4.20
2019-01-25T07:24:04.894Z,-4.20
2019-01-25T07:25:04.539Z,-4.20
2019-01-25T07:26:05.233Z,-4.20
2019-01-25T07:27:05.157Z,-4.10
2019-01-25T07:28:04.699Z,-4.10
2019-01-25T07:29:11.344Z,-4.20
2019-01-25T07:30:05.029Z,-4.10
2019-01-25T07:31:04.437Z,-4.10
2019-01-25T07:32:04.877Z,-4.10
2019-01-25T07:33:04.526Z,-4.10
2019-01-25T07:34:04.807Z,-4.10
2019-01-25T07:35:04.942Z,-4.10
2019-01-25T07:36:04.200Z,-4.10
2019-01-25T07:37:04.327Z,-4.10
2019-01-25T07:38:04.463Z,-4.10
2019-01-25T07:39:04.802Z,-4.10
2019-01-25T07:40:04.531Z,-4.10
2019-01-25T07:41:04.625Z,-4.10
2019-01-25T07:42:05.036Z,-4.10
2019-01-25T07:43:04.659Z,-4.10
2019-01-25T07:44:05.021Z,-4.10
2019-01-25T07:45:04.538Z,-4.10
2019-01-25T07:46:04.934Z,-4.10
2019-01-25T07:47:05.051Z,-4.10
2019-01-25T07:48:04.462Z,-4.10
2019-01-25T07:49:04.981Z,-4.10
2019-01-25T07:50:04.189Z,-4.10
2019-01-25T07:51:04.555Z,-4.10
2019-01-25T07:52:04.279Z,-4.10
2019-01-25T07:53:04.633Z,-4.00
2019-01-25T07:54:05.049Z,-4.00
2019-01-25T07:55:04.918Z,-4.00
2019-01-25T07:56:04.597Z,-4.00
2019-01-25T07:57:04.626Z,-4.00
2019-01-25T07:58:04.912Z,-4.00
2019-01-25T07:59:04.183Z,-4.00
2019-01-25T08:00:04.602Z,-4.00
2019-01-25T08:01:04.672Z,-4.00
2019-01-25T08:02:05.132Z,-4.00
2019-01-25T08:03:04.549Z,-4.00
2019-01-25T08:04:05.062Z,-4.00
2019-01-25T08:05:04.470Z,-4.00
2019-01-25T08:06:04.841Z,-4.00
2019-01-25T08:07:04.453Z,-4.00
2019-01-25T08:08:04.782Z,-4.00
2019-01-25T08:09:04.371Z,-3.90
2019-01-25T08:10:04.835Z,-3.90
2019-01-25T08:11:04.551Z,-3.90
2019-01-25T08:12:07.448Z,-3.90
2019-01-25T08:13:05.016Z,-3.90
2019-01-25T08:14:05.036Z,-3.90
2019-01-25T08:15:05.043Z,-3.90
2019-01-25T08:16:04.707Z,-3.90
2019-01-25T08:17:04.891Z,-3.90
2019-01-25T08:18:05.117Z,-3.90
2019-01-25T08:19:04.244Z,-3.90
2019-01-25T08:20:04.685Z,-3.90
2019-01-25T08:21:04.781Z,-3.90
2019-01-25T08:22:04.485Z,-3.90
2019-01-25T08:23:04.724Z,-3.90
2019-01-25T08:24:04.860Z,-3.80
2019-01-25T08:25:05.006Z,-3.80
2019-01-25T08:26:04.739Z,-3.80
2019-01-25T08:27:05.076Z,-3.80
2019-01-25T08:28:05.271Z,-3.80
2019-01-25T08:29:04.563Z,-3.80
2019-01-25T08:30:04.849Z,-3.80
2019-01-25T08:31:05.106Z,-3.80
2019-01-25T08:32:04.560Z,-3.80
2019-01-25T08:33:05.031Z,-3.80
2019-01-25T08:34:04.471Z,-3.80
2019-01-25T08:35:04.597Z,-3.70
2019-01-25T08:36:04.775Z,-3.70
2019-01-25T08:37:04.544Z,-3.70
2019-01-25T08:38:06.490Z,-3.70
2019-01-25T08:39:04.484Z,-3.70
2019-01-25T08:40:05.068Z,-3.70
2019-01-25T08:41:04.352Z,-3.70
2019-01-25T08:42:15.377Z,-3.70
2019-01-25T08:43:04.312Z,-3.70
2019-01-25T08:44:04.447Z,-3.60
2019-01-25T08:45:04.750Z,-3.60
2019-01-25T08:46:04.945Z,-3.60
2019-01-25T08:47:04.977Z,-3.60
2019-01-25T08:48:04.736Z,-3.60
2019-01-25T08:49:04.990Z,-3.60
2019-01-25T08:50:05.063Z,-3.50
2019-01-25T08:51:04.513Z,-3.50
2019-01-25T08:52:04.615Z,-3.50
2019-01-25T08:53:05.152Z,-3.50
2019-01-25T08:54:04.851Z,-3.50
2019-01-25T08:55:05.043Z,-3.50
2019-01-25T08:56:04.963Z,-3.50
2019-01-25T08:57:04.505Z,-3.50
2019-01-25T08:58:04.753Z,-3.40
2019-01-25T08:59:04.975Z,-3.40
2019-01-25T09:00:05.005Z,-3.40
2019-01-25T09:01:04.660Z,-3.40
2019-01-25T09:02:04.398Z,-3.40
2019-01-25T09:03:05.031Z,-3.40
2019-01-25T09:04:05.164Z,-3.40
2019-01-25T09:05:04.798Z,-3.40
2019-01-25T09:06:04.921Z,-3.40
2019-01-25T09:07:04.295Z,-3.30
2019-01-25T09:08:04.387Z,-3.30
2019-01-25T09:09:04.797Z,-3.30
2019-01-25T09:10:04.858Z,-3.30
2019-01-25T09:11:05.074Z,-3.30
2019-01-25T09:12:04.445Z,-3.30
2019-01-25T09:13:04.850Z,-3.30
2019-01-25T09:14:04.321Z,-3.20
2019-01-25T09:15:04.610Z,-3.20
2019-01-25T09:16:04.258Z,-3.20
2019-01-25T09:17:04.338Z,-3.20
2019-01-25T09:18:04.692Z,-3.20
2019-01-25T09:19:05.007Z,-3.20
2019-01-25T09:20:05.051Z,-3.10
2019-01-25T09:21:05.168Z,-3.10
2019-01-25T09:22:04.579Z,-3.10
2019-01-25T09:23:04.937Z,-3.10
2019-01-25T09:24:04.702Z,-3.10
2019-01-25T09:25:04.928Z,-3.10
2019-01-25T09:26:04.203Z,-3.10
2019-01-25T09:27:04.693Z,-3.00
2019-01-25T09:28:05.274Z,-3.00
2019-01-25T09:29:09.225Z,-3.00
2019-01-25T09:30:04.781Z,-3.00
2019-01-25T09:31:04.783Z,-3.00
2019-01-25T09:32:04.763Z,-2.90
2019-01-25T09:33:05.186Z,-2.90
2019-01-25T09:34:04.620Z,-2.90
2019-01-25T09:35:04.489Z,-2.90
2019-01-25T09:36:05.241Z,-2.90
2019-01-25T09:37:04.443Z,-2.90
2019-01-25T09:38:04.308Z,-2.90
2019-01-25T09:39:04.992Z,-2.80
2019-01-25T09:40:04.205Z,-2.80
2019-01-25T09:41:04.335Z,-2.80
2019-01-25T09:42:04.355Z,-2.80
2019-01-25T09:43:04.566Z,-2.80
2019-01-25T09:44:04.814Z,-2.80
2019-01-25T09:45:04.195Z,-2.70
2019-01-25T09:46:04.748Z,-2.70
2019-01-25T09:47:04.852Z,-2.70
2019-01-25T09:48:04.979Z,-2.70
2019-01-25T09:49:04.248Z,-2.70
2019-01-25T09:50:09.496Z,-2.70
2019-01-25T09:51:04.583Z,-2.70
2019-01-25T09:52:04.748Z,-2.70
2019-01-25T09:53:05.110Z,-2.60
2019-01-25T09:54:04.808Z,-2.60
2019-01-25T09:55:05.063Z,-2.60
2019-01-25T09:56:05.270Z,-2.60
2019-01-25T09:57:04.654Z,-2.60
2019-01-25T09:58:04.315Z,-2.60
2019-01-25T09:59:04.539Z,-2.60
2019-01-25T10:00:04.839Z,-2.60
2019-01-25T10:01:05.099Z,-2.50
2019-01-25T10:02:04.830Z,-2.50
2019-01-25T10:03:04.984Z,-2.50
2019-01-25T10:04:04.468Z,-2.50
2019-01-25T10:05:04.497Z,-2.50
2019-01-25T10:06:04.649Z,-2.40
2019-01-25T10:07:05.106Z,-2.40
2019-01-25T10:08:04.787Z,-2.40
2019-01-25T10:09:05.095Z,-2.40
2019-01-25T10:10:04.316Z,-2.40
2019-01-25T10:11:04.410Z,-2.40
2019-01-25T10:12:05.011Z,-2.40
2019-01-25T10:13:04.998Z,-2.30
2019-01-25T10:14:04.186Z,-2.30
2019-01-25T10:15:04.842Z,-2.30
2019-01-25T10:16:05.172Z,-2.30
2019-01-25T10:17:04.931Z,-2.30
2019-01-25T10:18:04.471Z,-2.20
2019-01-25T10:19:04.770Z,-2.20
2019-01-25T10:20:04.862Z,-2.20
2019-01-25T10:21:04.887Z,-2.20
2019-01-25T10:22:05.045Z,-2.20
2019-01-25T10:23:05.350Z,-2.20
2019-01-25T10:24:04.290Z,-2.20
2019-01-25T10:25:04.437Z,-2.20
2019-01-25T10:26:05.123Z,-2.20
2019-01-25T10:27:04.203Z,-2.20
2019-01-25T10:28:04.416Z,-2.20
2019-01-25T10:29:11.483Z,-2.20
2019-01-25T10:30:05.008Z,-2.20
2019-01-25T10:31:05.071Z,-2.20
2019-01-25T10:32:04.398Z,-2.20
2019-01-25T10:33:04.683Z,-2.20
2019-01-25T10:34:04.983Z,-2.20
2019-01-25T10:35:04.428Z,-2.20
2019-01-25T10:36:05.097Z,-2.20
2019-01-25T10:37:04.365Z,-2.20
2019-01-25T10:38:04.997Z,-2.20
2019-01-25T10:39:04.989Z,-2.20
2019-01-25T10:40:04.618Z,-2.20
2019-01-25T10:41:04.641Z,-2.20
2019-01-25T10:42:04.868Z,-2.20
2019-01-25T10:43:05.048Z,-2.20
2019-01-25T10:44:05.209Z,-2.20
2019-01-25T10:45:04.514Z,-2.20
2019-01-25T10:46:04.543Z,-2.20
2019-01-25T10:47:04.497Z,-2.20
2019-01-25T10:48:04.211Z,-2.20
2019-01-25T10:49:04.786Z,-2.20
2019-01-25T10:50:04.986Z,-2.20
2019-01-25T10:51:05.217Z,-2.20
2019-01-25T10:52:04.599Z,-2.10
2019-01-25T10:53:04.626Z,-2.10
2019-01-25T10:54:04.718Z,-2.10
2019-01-25T10:55:04.246Z,-2.10
2019-01-25T10:56:04.876Z,-2.10
2019-01-25T10:57:04.975Z,-2.10
2019-01-25T10:58:04.591Z,-2.10
2019-01-25T10:59:04.920Z,-2.10
2019-01-25T11:00:04.579Z,-2.10
2019-01-25T11:01:04.675Z,-2.10
2019-01-25T11:02:04.725Z,-2.10
2019-01-25T11:03:05.004Z,-2.10
2019-01-25T11:04:04.794Z,-2.10
2019-01-25T11:05:04.294Z,-2.10
2019-01-25T11:06:04.414Z,-2.00
2019-01-25T11:07:04.942Z,-2.00
2019-01-25T11:08:04.263Z,-2.00
2019-01-25T11:09:04.270Z,-2.00
2019-01-25T11:10:04.956Z,-2.00
2019-01-25T11:11:04.931Z,-2.00
2019-01-25T11:12:05.153Z,-2.00
2019-01-25T11:13:05.109Z,-2.00
2019-01-25T11:14:05.104Z,-2.00
2019-01-25T11:15:04.618Z,-2.00
2019-01-25T11:16:05.062Z,-2.00
2019-01-25T11:17:04.526Z,-2.00
2019-01-25T11:18:04.688Z,-2.00
2019-01-25T11:19:04.774Z,-2.00
2019-01-25T11:20:04.978Z,-2.00
2019-01-25T11:21:04.999Z,-2.00
2019-01-25T11:22:04.748Z,-1.90
2019-01-25T11:23:04.782Z,-2.00
2019-01-25T11:24:07.769Z,-1.90
2019-01-25T11:25:04.649Z,-1.90
2019-01-25T11:26:05.161Z,-1.90
2019-01-25T11:27:04.206Z,-1.90
2019-01-25T11:28:04.314Z,-1.90
2019-01-25T11:29:09.581Z,-1.90
2019-01-25T11:30:04.525Z,-1.90
2019-01-25T11:31:05.028Z,-1.90
2019-01-25T11:32:05.180Z,-1.90
2019-01-25T11:33:04.254Z,-1.90
2019-01-25T11:34:04.468Z,-1.80
2019-01-25T11:35:04.783Z,-1.80
2019-01-25T11:36:04.849Z,-1.80
2019-01-25T11:37:05.108Z,-1.80
2019-01-25T11:38:04.238Z,-1.80
2019-01-25T11:39:04.778Z,-1.80
2019-01-25T11:40:05.185Z,-1.80
2019-01-25T11:41:04.241Z,-1.80
2019-01-25T11:42:04.651Z,-1.80
2019-01-25T11:43:08.669Z,-1.80
2019-01-25T11:44:04.797Z,-1.80
2019-01-25T11:45:05.187Z,-1.80
2019-01-25T11:46:04.289Z,-1.80
2019-01-25T11:47:04.450Z,-1.80
2019-01-25T11:48:04.491Z,-1.80
2019-01-25T11:49:04.661Z,-1.80
2019-01-25T11:50:05.056Z,-1.80
2019-01-25T11:51:05.070Z,-1.90
2019-01-25T11:52:04.389Z,-1.90
2019-01-25T11:53:05.068Z,-1.90
2019-01-25T11:54:04.690Z,-1.90
2019-01-25T11:55:04.753Z,-1.90
2019-01-25T11:56:05.086Z,-1.90
2019-01-25T11:57:04.408Z,-1.90
2019-01-25T11:58:04.440Z,-1.90
2019-01-25T11:59:04.561Z,-1.90
2019-01-25T12:00:04.550Z,-1.90
2019-01-25T12:01:04.844Z,-1.90
2019-01-25T12:02:05.032Z,-1.90
2019-01-25T12:03:04.218Z,-1.90
2019-01-25T12:04:04.309Z,-1.90
2019-01-25T12:05:04.826Z,-1.90
2019-01-25T12:06:04.839Z,-1.90
2019-01-25T12:07:04.239Z,-2.00
2019-01-25T12:08:04.326Z,-2.00
2019-01-25T12:09:04.448Z,-2.00
2019-01-25T12:10:04.436Z,-2.00
2019-01-25T12:11:04.866Z,-2.00
2019-01-25T12:12:05.244Z,-2.00
2019-01-25T12:13:04.413Z,-2.00
2019-01-25T12:14:04.989Z,-2.00
2019-01-25T12:15:04.670Z,-2.00
2019-01-25T12:16:04.869Z,-2.00
2019-01-25T12:17:04.444Z,-2.00
2019-01-25T12:18:04.626Z,-2.00
2019-01-25T12:19:04.226Z,-2.00
2019-01-25T12:20:04.411Z,-2.00
2019-01-25T12:21:04.663Z,-2.00
2019-01-25T12:22:04.834Z,-2.00
2019-01-25T12:23:04.927Z,-2.00
2019-01-25T12:24:05.072Z,-2.00
2019-01-25T12:25:04.362Z,-1.90
2019-01-25T12:26:04.523Z,-2.00
2019-01-25T12:27:04.526Z,-2.00
2019-01-25T12:28:05.511Z,-2.00
2019-01-25T12:29:04.332Z,-2.00
2019-01-25T12:30:04.918Z,-2.00
2019-01-25T12:31:04.906Z,-2.00
2019-01-25T12:32:05.042Z,-2.00
2019-01-25T12:33:05.142Z,-2.00
2019-01-25T12:34:04.620Z,-2.00
2019-01-25T12:35:07.200Z,-2.00
2019-01-25T12:36:05.180Z,-2.00
2019-01-25T12:37:04.804Z,-2.00
2019-01-25T12:38:04.630Z,-2.00
2019-01-25T12:39:04.602Z,-2.00
2019-01-25T12:40:04.650Z,-2.00
2019-01-25T12:41:11.646Z,-2.10
2019-01-25T12:42:05.183Z,-2.10
2019-01-25T12:43:04.590Z,-2.10
2019-01-25T12:44:04.823Z,-2.10
2019-01-25T12:45:04.828Z,-2.10
2019-01-25T12:46:04.373Z,-2.10
2019-01-25T12:47:04.453Z,-2.20
2019-01-25T12:48:04.795Z,-2.20
2019-01-25T12:49:04.258Z,-2.20
2019-01-25T12:50:04.463Z,-2.20
2019-01-25T12:51:05.097Z,-2.20
2019-01-25T12:52:08.248Z,-2.20